Time;durP1;ratioP1;P1;durP2;ratioP2;P2;SDS_P1;SDS_P2;PMS_P1;PMS_P2;Temp;Humidity;BMP_temperature;BMP_pressure;BME280_temperature;BME280_humidity;BME280_pressure;Samples;Min_cycle;Max_cycle;Signal;HPM_P1;HPM_P2
2023/07/14 00:01:17;;;;;;;8.30;3.03;;;;;;;;;;5147986;27;20419;-69
2023/07/14 00:03:44;;;;;;;5.90;3.20;;;;;;;;;;5145714;27;20414;-69
2023/07/14 00:06:12;;;;;;;5.85;3.20;;;;;;;;;;5149856;27;20046;-69
2023/07/14 00:08:40;;;;;;;7.30;3.10;;;;;;;;;;5145880;27;20050;-69
2023/07/14 00:11:11;;;;;;;10.80;3.40;;;;;;;;;;5142607;27;20147;-69
2023/07/14 00:13:40;;;;;;;9.38;3.50;;;;;;;;;;5148242;27;20043;-69
2023/07/14 00:16:12;;;;;;;7.47;3.05;;;;;;;;;;5149069;27;20045;-69
2023/07/14 00:18:39;;;;;;;12.25;3.80;;;;;;;;;;5141290;27;20144;-69
2023/07/14 00:21:07;;;;;;;8.00;3.10;;;;;;;;;;5130107;27;20046;-69
2023/07/14 00:23:34;;;;;;;5.43;3.42;;;;;;;;;;5142341;27;20107;-69
2023/07/14 00:26:02;;;;;;;7.78;3.25;;;;;;;;;;5129270;27;20100;-69
2023/07/14 00:28:30;;;;;;;7.88;2.80;;;;;;;;;;5144185;27;20486;-69
2023/07/14 00:30:59;;;;;;;8.65;3.33;;;;;;;;;;5143836;27;20047;-69
2023/07/14 00:33:26;;;;;;;7.65;3.30;;;;;;;;;;5140050;27;20159;-69
2023/07/14 00:35:53;;;;;;;8.23;3.45;;;;;;;;;;5143588;27;20074;-69
2023/07/14 00:38:21;;;;;;;8.70;3.58;;;;;;;;;;5123809;27;20057;-69
2023/07/14 00:40:49;;;;;;;8.00;3.40;;;;;;;;;;5146537;27;20064;-69
2023/07/14 00:43:18;;;;;;;7.30;3.30;;;;;;;;;;5145280;27;20083;-69
2023/07/14 00:45:46;;;;;;;7.43;3.10;;;;;;;;;;5140370;27;20042;-69
2023/07/14 00:48:16;;;;;;;10.23;3.53;;;;;;;;;;5140427;27;20075;-69
2023/07/14 00:50:43;;;;;;;6.32;3.20;;;;;;;;;;5141417;27;20073;-69
2023/07/14 00:53:13;;;;;;;6.50;3.60;;;;;;;;;;5138299;27;20401;-69
2023/07/14 00:55:41;;;;;;;7.82;3.38;;;;;;;;;;5141802;27;20058;-69
2023/07/14 00:58:14;;;;;;;15.65;4.20;;;;;;;;;;5120002;27;20046;-69
2023/07/14 01:00:41;;;;;;;;;;;;;;;;;;5139535;27;20125;-69
2023/07/14 01:03:15;;;;;;;8.52;3.47;;;;;;;;;;5149763;27;20317;-69
2023/07/14 01:05:44;;;;;;;8.05;3.65;;;;;;;;;;5140965;27;20047;-70
2023/07/14 01:08:11;;;;;;;9.60;4.00;;;;;;;;;;5149022;27;20116;-70
2023/07/14 01:10:38;;;;;;;8.68;3.50;;;;;;;;;;5142148;27;20086;-70
2023/07/14 01:13:07;;;;;;;10.25;3.47;;;;;;;;;;5148282;27;20045;-69
2023/07/14 01:15:35;;;;;;;9.85;3.65;;;;;;;;;;5138447;27;20038;-69
2023/07/14 01:18:03;;;;;;;6.53;3.35;;;;;;;;;;5147412;27;20495;-69
2023/07/14 01:20:30;;;;;;;7.65;3.55;;;;;;;;;;5142485;27;20062;-70
2023/07/14 01:23:07;;;;;;;5.78;3.53;;;;;;;;;;5142947;27;20066;-69
2023/07/14 01:25:44;;;;;;;7.95;3.40;;;;;;;;;;5140789;27;20482;-70
2023/07/14 01:28:13;;;;;;;5.60;3.30;;;;;;;;;;5142616;27;20053;-69
2023/07/14 01:30:40;;;;;;;7.20;3.65;;;;;;;;;;5138796;27;20053;-69
2023/07/14 01:33:11;;;;;;;8.10;3.47;;;;;;;;;;5138399;27;20478;-69
2023/07/14 01:35:39;;;;;;;7.03;3.33;;;;;;;;;;5146538;27;20439;-69
2023/07/14 01:38:08;;;;;;;5.45;3.50;;;;;;;;;;5148015;27;20047;-70
2023/07/14 01:40:36;;;;;;;6.90;3.58;;;;;;;;;;5148100;27;20430;-69
2023/07/14 01:43:04;;;;;;;9.02;3.78;;;;;;;;;;5124480;27;20050;-69
2023/07/14 01:45:35;;;;;;;6.25;3.85;;;;;;;;;;5125586;27;20042;-69
2023/07/14 01:48:03;;;;;;;7.60;4.05;;;;;;;;;;5148823;27;20054;-69
2023/07/14 01:50:32;;;;;;;12.75;4.45;;;;;;;;;;5143225;27;20042;-70
2023/07/14 01:53:02;;;;;;;5.18;3.42;;;;;;;;;;5133274;27;20560;-70
2023/07/14 01:55:34;;;;;;;4.78;3.25;;;;;;;;;;5120912;27;20134;-70
2023/07/14 01:58:04;;;;;;;6.80;3.60;;;;;;;;;;5116197;27;20122;-69
2023/07/14 02:00:33;;;;;;;8.00;3.53;;;;;;;;;;5143464;27;20054;-69
2023/07/14 02:03:01;;;;;;;7.53;3.30;;;;;;;;;;5142248;27;20098;-69
2023/07/14 02:05:31;;;;;;;8.48;3.90;;;;;;;;;;5143491;27;20047;-69
2023/07/14 02:07:59;;;;;;;7.43;3.85;;;;;;;;;;5129291;27;20055;-70
2023/07/14 02:10:26;;;;;;;7.47;3.10;;;;;;;;;;5146457;27;20056;-69
2023/07/14 02:12:55;;;;;;;8.73;3.40;;;;;;;;;;5145646;27;20200;-70
2023/07/14 02:15:24;;;;;;;11.18;3.83;;;;;;;;;;5133718;27;20444;-69
2023/07/14 02:17:54;;;;;;;8.13;3.50;;;;;;;;;;5139654;27;20050;-69
2023/07/14 02:20:24;;;;;;;8.82;3.08;;;;;;;;;;5137868;27;20132;-70
2023/07/14 02:22:53;;;;;;;7.28;3.65;;;;;;;;;;5139430;27;20047;-69
2023/07/14 02:25:22;;;;;;;7.90;3.15;;;;;;;;;;5147462;27;20062;-69
2023/07/14 02:27:50;;;;;;;8.48;3.10;;;;;;;;;;5143443;27;20054;-69
2023/07/14 02:30:18;;;;;;;8.05;3.15;;;;;;;;;;5139835;27;20051;-69
2023/07/14 02:32:49;;;;;;;9.38;3.35;;;;;;;;;;5145257;27;20038;-68
2023/07/14 02:35:21;;;;;;;7.00;2.92;;;;;;;;;;5149010;27;20434;-69
2023/07/14 02:38:04;;;;;;;9.68;2.95;;;;;;;;;;5146136;27;20043;-69
2023/07/14 02:40:32;;;;;;;6.43;3.28;;;;;;;;;;5145951;27;20042;-69
2023/07/14 02:42:59;;;;;;;9.25;3.08;;;;;;;;;;5146554;27;20043;-69
2023/07/14 02:45:27;;;;;;;5.93;2.92;;;;;;;;;;5150752;27;20047;-69
2023/07/14 02:47:56;;;;;;;10.68;2.80;;;;;;;;;;5153269;27;20042;-69
2023/07/14 02:50:24;;;;;;;7.00;2.63;;;;;;;;;;5149898;27;20051;-69
2023/07/14 02:52:52;;;;;;;7.60;2.47;;;;;;;;;;5151435;27;20065;-69
2023/07/14 02:55:19;;;;;;;10.55;2.80;;;;;;;;;;5146557;27;20035;-69
2023/07/14 02:57:46;;;;;;;10.75;2.97;;;;;;;;;;5128559;27;20473;-69
2023/07/14 03:00:15;;;;;;;10.57;2.70;;;;;;;;;;5147456;27;20062;-69
2023/07/14 03:02:42;;;;;;;9.75;2.65;;;;;;;;;;5144025;27;20051;-69
2023/07/14 03:05:11;;;;;;;5.60;2.47;;;;;;;;;;5149558;27;20405;-69
2023/07/14 03:07:40;;;;;;;6.00;2.30;;;;;;;;;;5141097;27;20453;-69
2023/07/14 03:10:09;;;;;;;6.22;2.38;;;;;;;;;;5118543;27;20054;-69
2023/07/14 03:12:36;;;;;;;8.50;2.35;;;;;;;;;;5146380;27;21663;-69
2023/07/14 03:15:05;;;;;;;8.30;2.38;;;;;;;;;;5142380;27;20055;-69
2023/07/14 03:17:33;;;;;;;9.57;3.05;;;;;;;;;;5142218;27;20043;-69
2023/07/14 03:20:00;;;;;;;8.95;2.95;;;;;;;;;;5140186;27;20054;-69
2023/07/14 03:22:30;;;;;;;5.25;2.50;;;;;;;;;;5142495;27;20102;-69
2023/07/14 03:25:01;;;;;;;9.05;2.75;;;;;;;;;;5144905;27;20572;-69
2023/07/14 03:27:28;;;;;;;7.55;2.90;;;;;;;;;;5124382;27;20115;-69
2023/07/14 03:29:56;;;;;;;10.80;2.47;;;;;;;;;;5141930;27;20058;-69
2023/07/14 03:32:23;;;;;;;6.72;2.67;;;;;;;;;;5142988;27;20038;-69
2023/07/14 03:34:50;;;;;;;9.40;2.80;;;;;;;;;;5137954;27;20050;-69
2023/07/14 03:37:17;;;;;;;6.55;2.90;;;;;;;;;;5135966;27;20050;-69
2023/07/14 03:39:44;;;;;;;9.43;3.33;;;;;;;;;;5144680;27;20415;-69
2023/07/14 03:42:14;;;;;;;8.32;2.55;;;;;;;;;;5143632;27;20059;-69
2023/07/14 03:44:41;;;;;;;6.15;2.83;;;;;;;;;;5122136;27;20122;-69
2023/07/14 03:47:08;;;;;;;5.05;2.60;;;;;;;;;;5149186;27;20050;-69
2023/07/14 03:49:36;;;;;;;6.68;2.95;;;;;;;;;;5138139;27;20047;-69
2023/07/14 03:52:04;;;;;;;8.27;2.53;;;;;;;;;;5136896;27;20059;-69
2023/07/14 03:54:31;;;;;;;7.18;2.58;;;;;;;;;;5139525;27;20124;-69
2023/07/14 03:56:59;;;;;;;9.43;2.22;;;;;;;;;;5144930;27;20039;-69
2023/07/14 03:59:28;;;;;;;8.32;2.47;;;;;;;;;;5144689;27;20489;-68
2023/07/14 04:01:55;;;;;;;6.53;2.40;;;;;;;;;;5142462;27;20073;-69
2023/07/14 04:04:22;;;;;;;11.15;2.92;;;;;;;;;;5143797;27;20055;-69
2023/07/14 04:06:50;;;;;;;7.55;2.47;;;;;;;;;;5143651;27;20054;-69
2023/07/14 04:09:17;;;;;;;6.82;2.20;;;;;;;;;;5127017;27;20390;-69
2023/07/14 04:11:44;;;;;;;6.50;2.05;;;;;;;;;;5144796;27;20393;-69
2023/07/14 04:14:12;;;;;;;6.50;1.95;;;;;;;;;;5143109;27;20571;-69
2023/07/14 04:16:40;;;;;;;7.90;2.00;;;;;;;;;;5113449;27;20059;-69
2023/07/14 04:19:08;;;;;;;6.30;1.92;;;;;;;;;;5119937;27;20054;-69
2023/07/14 04:21:35;;;;;;;7.72;2.67;;;;;;;;;;5141131;27;20055;-69
2023/07/14 04:24:03;;;;;;;6.78;2.17;;;;;;;;;;5116539;27;20108;-69
2023/07/14 04:26:30;;;;;;;8.98;2.10;;;;;;;;;;5138461;27;20053;-69
2023/07/14 04:28:57;;;;;;;6.72;2.38;;;;;;;;;;5137212;27;20047;-69
2023/07/14 04:31:25;;;;;;;8.90;2.15;;;;;;;;;;5119845;27;20043;-69
2023/07/14 04:33:53;;;;;;;5.90;1.90;;;;;;;;;;5149418;27;20039;-70
2023/07/14 04:36:20;;;;;;;7.22;1.80;;;;;;;;;;5137566;27;20043;-69
2023/07/14 04:39:01;;;;;;;6.18;1.80;;;;;;;;;;5145101;27;20042;-69
2023/07/14 04:41:28;;;;;;;11.95;2.00;;;;;;;;;;5137820;27;20054;-69
2023/07/14 04:43:55;;;;;;;9.05;2.30;;;;;;;;;;5143799;27;20053;-70
2023/07/14 04:46:23;;;;;;;8.20;2.17;;;;;;;;;;5149917;27;20047;-69
2023/07/14 04:48:51;;;;;;;5.43;2.03;;;;;;;;;;5135461;27;20057;-69
2023/07/14 04:51:20;;;;;;;4.13;1.83;;;;;;;;;;5144280;27;20043;-70
2023/07/14 04:53:47;;;;;;;4.10;2.15;;;;;;;;;;5145260;27;20054;-69
2023/07/14 04:56:14;;;;;;;3.92;1.85;;;;;;;;;;5139404;27;20092;-69
2023/07/14 04:58:41;;;;;;;8.20;1.92;;;;;;;;;;5141887;27;20047;-69
2023/07/14 05:01:09;;;;;;;10.80;2.20;;;;;;;;;;5144047;27;20062;-69
2023/07/14 05:03:36;;;;;;;7.95;2.13;;;;;;;;;;5144513;27;20409;-70
2023/07/14 05:06:03;;;;;;;8.43;2.45;;;;;;;;;;5141007;27;20055;-69
2023/07/14 05:08:32;;;;;;;5.35;2.20;;;;;;;;;;5145035;27;20450;-66
2023/07/14 05:10:59;;;;;;;5.45;2.40;;;;;;;;;;5148662;27;20096;-66
2023/07/14 05:13:26;;;;;;;6.47;2.65;;;;;;;;;;5140678;27;20051;-66
2023/07/14 05:15:53;;;;;;;9.75;2.75;;;;;;;;;;5119291;27;20201;-66
2023/07/14 05:18:21;;;;;;;6.38;2.00;;;;;;;;;;5146379;27;20485;-66
2023/07/14 05:20:48;;;;;;;4.28;2.15;;;;;;;;;;5122519;27;20050;-65
2023/07/14 05:23:16;;;;;;;6.68;2.10;;;;;;;;;;5144170;27;20042;-65
2023/07/14 05:25:44;;;;;;;9.52;2.47;;;;;;;;;;5135146;27;20046;-66
2023/07/14 05:28:11;;;;;;;9.10;3.13;;;;;;;;;;5134939;27;20063;-66
2023/07/14 05:30:39;;;;;;;11.93;2.78;;;;;;;;;;5144325;27;20055;-66
2023/07/14 05:33:06;;;;;;;4.63;2.47;;;;;;;;;;5136582;27;20054;-66
2023/07/14 05:35:33;;;;;;;8.02;2.55;;;;;;;;;;5146724;27;20050;-66
2023/07/14 05:38:00;;;;;;;7.18;2.70;;;;;;;;;;5137432;27;20051;-66
2023/07/14 05:40:28;;;;;;;9.00;2.90;;;;;;;;;;5134113;27;20039;-66
2023/07/14 05:42:56;;;;;;;6.05;2.60;;;;;;;;;;5145437;27;20039;-66
2023/07/14 05:45:23;;;;;;;10.32;2.88;;;;;;;;;;5127024;27;20042;-66
2023/07/14 05:47:51;;;;;;;8.32;2.97;;;;;;;;;;5147938;27;20053;-66
2023/07/14 05:50:18;;;;;;;9.45;2.85;;;;;;;;;;5145213;27;20453;-66
2023/07/14 05:52:46;;;;;;;8.20;3.13;;;;;;;;;;5143954;27;20043;-66
2023/07/14 05:55:14;;;;;;;6.72;2.92;;;;;;;;;;5147480;27;20057;-66
2023/07/14 05:57:43;;;;;;;6.68;2.85;;;;;;;;;;5140195;27;20561;-66
2023/07/14 06:00:16;;;;;;;11.05;3.80;;;;;;;;;;5141034;27;20154;-66
2023/07/14 06:02:43;;;;;;;6.38;3.00;;;;;;;;;;5142400;27;20042;-66
2023/07/14 06:05:12;;;;;;;7.15;2.90;;;;;;;;;;5136227;27;20050;-65
2023/07/14 06:07:40;;;;;;;9.55;3.28;;;;;;;;;;5146077;27;20138;-66
2023/07/14 06:10:09;;;;;;;13.95;3.45;;;;;;;;;;5143293;27;20078;-66
2023/07/14 06:12:36;;;;;;;10.35;3.28;;;;;;;;;;5140583;27;20385;-66
2023/07/14 06:15:03;;;;;;;10.50;3.30;;;;;;;;;;5144143;27;20055;-66
2023/07/14 06:17:32;;;;;;;12.77;3.10;;;;;;;;;;5138866;27;20054;-66
2023/07/14 06:19:59;;;;;;;4.63;2.60;;;;;;;;;;5148117;27;20047;-67
2023/07/14 06:22:26;;;;;;;4.90;2.33;;;;;;;;;;5133821;27;20047;-66
2023/07/14 06:24:54;;;;;;;6.88;3.33;;;;;;;;;;5138191;27;20051;-66
2023/07/14 06:27:23;;;;;;;4.20;2.50;;;;;;;;;;5134259;27;20039;-67
2023/07/14 06:29:50;;;;;;;7.28;2.55;;;;;;;;;;5131745;27;20543;-65
2023/07/14 06:32:17;;;;;;;5.20;2.30;;;;;;;;;;5141514;27;20477;-65
2023/07/14 06:34:46;;;;;;;6.00;2.50;;;;;;;;;;5141524;27;20050;-66
2023/07/14 06:37:14;;;;;;;5.80;2.33;;;;;;;;;;5121794;27;20263;-66
2023/07/14 06:39:41;;;;;;;4.93;2.38;;;;;;;;;;5139693;27;20179;-66
2023/07/14 06:42:09;;;;;;;3.55;2.13;;;;;;;;;;5141416;27;20054;-66
2023/07/14 06:44:36;;;;;;;4.22;1.80;;;;;;;;;;5143183;27;20040;-66
2023/07/14 06:47:04;;;;;;;5.50;1.95;;;;;;;;;;5148177;27;20435;-66
2023/07/14 06:49:31;;;;;;;5.45;2.00;;;;;;;;;;5142318;27;20050;-66
2023/07/14 06:51:59;;;;;;;6.68;2.65;;;;;;;;;;5141764;27;20502;-66
2023/07/14 06:54:27;;;;;;;3.60;2.08;;;;;;;;;;5141657;27;20066;-66
2023/07/14 06:56:55;;;;;;;6.47;2.30;;;;;;;;;;5141097;27;20042;-65
2023/07/14 06:59:22;;;;;;;7.53;2.58;;;;;;;;;;5145770;27;20046;-65
2023/07/14 07:01:50;;;;;;;8.07;2.88;;;;;;;;;;5142164;27;20099;-66
2023/07/14 07:04:17;;;;;;;5.75;2.60;;;;;;;;;;5145164;27;20431;-66
2023/07/14 07:06:44;;;;;;;6.45;2.65;;;;;;;;;;5128843;27;20241;-66
2023/07/14 07:09:13;;;;;;;8.23;3.35;;;;;;;;;;5141412;27;20355;-66
2023/07/14 07:11:40;;;;;;;5.05;2.75;;;;;;;;;;5134543;27;20047;-66
2023/07/14 07:14:08;;;;;;;4.85;2.47;;;;;;;;;;5147625;27;20058;-65
2023/07/14 07:16:35;;;;;;;5.82;2.53;;;;;;;;;;5133551;27;20042;-66
2023/07/14 07:19:03;;;;;;;3.55;2.58;;;;;;;;;;5145883;27;20047;-66
2023/07/14 07:21:30;;;;;;;7.25;2.80;;;;;;;;;;5141694;27;20050;-65
2023/07/14 07:23:57;;;;;;;4.05;2.38;;;;;;;;;;5131682;27;20130;-66
2023/07/14 07:26:26;;;;;;;5.38;2.70;;;;;;;;;;5145302;27;20042;-66
2023/07/14 07:28:53;;;;;;;7.78;2.63;;;;;;;;;;5147760;27;20363;-70
2023/07/14 07:31:21;;;;;;;4.85;2.83;;;;;;;;;;5123692;27;20054;-70
2023/07/14 07:33:48;;;;;;;4.43;2.17;;;;;;;;;;5143867;27;20485;-70
2023/07/14 07:36:16;;;;;;;6.65;2.30;;;;;;;;;;5151771;27;20050;-70
2023/07/14 07:38:45;;;;;;;4.20;2.30;;;;;;;;;;5139164;27;20397;-70
2023/07/14 07:41:12;;;;;;;4.60;2.22;;;;;;;;;;5142417;27;20050;-70
2023/07/14 07:43:41;;;;;;;7.90;2.25;;;;;;;;;;5146508;27;20061;-71
2023/07/14 07:46:09;;;;;;;5.30;2.13;;;;;;;;;;5127225;27;20138;-70
2023/07/14 07:48:36;;;;;;;3.33;2.10;;;;;;;;;;5141923;27;20137;-71
2023/07/14 07:51:04;;;;;;;4.55;2.20;;;;;;;;;;5143755;27;20452;-71
2023/07/14 07:53:32;;;;;;;5.18;2.38;;;;;;;;;;5147550;27;20154;-70
2023/07/14 07:56:00;;;;;;;4.97;2.03;;;;;;;;;;5141744;27;20039;-70
2023/07/14 07:58:27;;;;;;;5.65;1.80;;;;;;;;;;5126422;27;20058;-69
2023/07/14 08:00:56;;;;;;;7.57;1.70;;;;;;;;;;5137753;27;20546;-70
2023/07/14 08:03:24;;;;;;;7.93;2.00;;;;;;;;;;5124051;27;20042;-70
2023/07/14 08:05:52;;;;;;;5.00;1.88;;;;;;;;;;5143162;27;20050;-70
2023/07/14 08:08:19;;;;;;;4.80;1.90;;;;;;;;;;5141754;27;20112;-70
2023/07/14 08:10:46;;;;;;;4.65;1.85;;;;;;;;;;5143608;27;20480;-70
2023/07/14 08:13:14;;;;;;;4.20;2.05;;;;;;;;;;5149186;27;20810;-71
2023/07/14 08:15:42;;;;;;;3.25;1.40;;;;;;;;;;5143815;27;20047;-70
2023/07/14 08:18:10;;;;;;;5.78;1.70;;;;;;;;;;5146379;27;20042;-70
2023/07/14 08:20:38;;;;;;;5.05;1.65;;;;;;;;;;5138279;27;20051;-70
2023/07/14 08:23:06;;;;;;;4.93;1.75;;;;;;;;;;5122137;27;20228;-70
2023/07/14 08:25:34;;;;;;;3.15;1.45;;;;;;;;;;5122808;27;20058;-70
2023/07/14 08:28:01;;;;;;;3.88;1.83;;;;;;;;;;5144070;27;20054;-70
2023/07/14 08:30:30;;;;;;;4.43;1.70;;;;;;;;;;5140160;27;20043;-70
2023/07/14 08:32:57;;;;;;;4.03;1.52;;;;;;;;;;5129071;27;20043;-70
2023/07/14 08:35:26;;;;;;;3.28;1.80;;;;;;;;;;5143228;27;20042;-70
2023/07/14 08:37:54;;;;;;;3.58;1.85;;;;;;;;;;5148409;27;20051;-70
2023/07/14 08:40:23;;;;;;;7.80;1.98;;;;;;;;;;5122697;27;20490;-71
2023/07/14 08:42:53;;;;;;;5.85;2.20;;;;;;;;;;5149044;27;20401;-71
2023/07/14 08:45:28;;;;;;;4.07;1.88;;;;;;;;;;5147385;27;20804;-70
2023/07/14 08:48:00;;;;;;;5.90;1.90;;;;;;;;;;5145794;27;20047;-71
2023/07/14 08:50:30;;;;;;;5.55;1.95;;;;;;;;;;5124514;27;20127;-70
2023/07/14 08:53:03;;;;;;;7.53;2.15;;;;;;;;;;5141604;27;20493;-71
2023/07/14 08:55:31;;;;;;;4.27;2.13;;;;;;;;;;5142004;27;20056;-71
2023/07/14 08:58:01;;;;;;;4.53;2.22;;;;;;;;;;5147190;27;20047;-71
2023/07/14 09:00:31;;;;;;;3.70;1.77;;;;;;;;;;5141653;27;20501;-71
2023/07/14 09:03:05;;;;;;;5.00;2.05;;;;;;;;;;5126395;27;20050;-70
2023/07/14 09:05:36;;;;;;;3.63;1.65;;;;;;;;;;5127611;27;20061;-71
2023/07/14 09:08:05;;;;;;;3.92;1.63;;;;;;;;;;5144415;27;20054;-71
2023/07/14 09:10:36;;;;;;;5.53;1.60;;;;;;;;;;5140953;27;20434;-72
2023/07/14 09:13:08;;;;;;;2.25;1.20;;;;;;;;;;5121771;27;20054;-70
2023/07/14 09:15:36;;;;;;;4.28;1.90;;;;;;;;;;5142741;27;20062;-70
2023/07/14 09:18:16;;;;;;;2.50;1.50;;;;;;;;;;5145532;27;20047;-71
2023/07/14 09:20:52;;;;;;;5.70;2.05;;;;;;;;;;5129654;27;20051;-70
2023/07/14 09:23:26;;;;;;;3.40;1.58;;;;;;;;;;5118585;27;20054;-71
2023/07/14 09:25:57;;;;;;;5.57;1.63;;;;;;;;;;5142567;27;20096;-71
2023/07/14 09:28:27;;;;;;;3.58;1.77;;;;;;;;;;5147432;27;20046;-71
2023/07/14 09:30:55;;;;;;;3.03;1.73;;;;;;;;;;5146649;27;20042;-71
2023/07/14 09:33:22;;;;;;;3.75;1.88;;;;;;;;;;5138879;27;20051;-71
2023/07/14 09:35:52;;;;;;;5.47;2.00;;;;;;;;;;5145888;27;20082;-70
2023/07/14 09:38:23;;;;;;;3.97;1.75;;;;;;;;;;5143089;27;20062;-71
2023/07/14 09:40:55;;;;;;;6.07;1.95;;;;;;;;;;5129732;27;20121;-70
2023/07/14 09:43:22;;;;;;;4.70;1.52;;;;;;;;;;5139024;27;20100;-72
2023/07/14 09:45:55;;;;;;;5.63;2.05;;;;;;;;;;5146227;27;20054;-71
2023/07/14 09:48:26;;;;;;;5.22;2.08;;;;;;;;;;5137516;27;20052;-71
2023/07/14 09:50:57;;;;;;;5.75;1.60;;;;;;;;;;5146615;27;20047;-71
2023/07/14 09:53:24;;;;;;;2.95;1.80;;;;;;;;;;5144439;27;20074;-71
2023/07/14 09:55:53;;;;;;;5.30;1.88;;;;;;;;;;5146630;27;20437;-70
2023/07/14 09:58:22;;;;;;;4.88;1.70;;;;;;;;;;5138879;27;20481;-71
2023/07/14 10:00:50;;;;;;;3.92;1.83;;;;;;;;;;5144295;27;20440;-70
2023/07/14 10:03:19;;;;;;;6.15;1.83;;;;;;;;;;5142351;27;20047;-70
2023/07/14 10:05:52;;;;;;;4.43;1.83;;;;;;;;;;5137546;27;20058;-70
2023/07/14 10:08:38;;;;;;;3.28;1.60;;;;;;;;;;5139976;27;20047;-71
2023/07/14 10:11:22;;;;;;;4.95;1.58;;;;;;;;;;5139397;27;20390;-71
2023/07/14 10:13:54;;;;;;;3.08;1.60;;;;;;;;;;5143345;27;20039;-71
2023/07/14 10:16:22;;;;;;;3.95;1.67;;;;;;;;;;5133998;27;20092;-71
2023/07/14 10:18:51;;;;;;;5.13;1.90;;;;;;;;;;5145817;27;20409;-71
2023/07/14 10:21:24;;;;;;;4.88;1.80;;;;;;;;;;5149495;27;20070;-71
2023/07/14 10:23:57;;;;;;;6.63;1.90;;;;;;;;;;5142765;27;20047;-70
2023/07/14 10:26:28;;;;;;;3.60;1.75;;;;;;;;;;5141195;27;20047;-71
2023/07/14 10:28:56;;;;;;;4.80;1.80;;;;;;;;;;5148065;27;20043;-70
2023/07/14 10:31:27;;;;;;;3.13;1.98;;;;;;;;;;5141070;27;20047;-72
2023/07/14 10:34:12;;;;;;;3.45;2.03;;;;;;;;;;5147617;27;20498;-71
2023/07/14 10:36:40;;;;;;;5.10;2.42;;;;;;;;;;5146834;27;20057;-72
2023/07/14 10:39:12;;;;;;;4.03;2.30;;;;;;;;;;5146575;27;20131;-71
2023/07/14 10:41:45;;;;;;;4.82;2.13;;;;;;;;;;5142932;27;20068;-72
2023/07/14 10:44:14;;;;;;;5.07;2.13;;;;;;;;;;5148166;27;20049;-71
2023/07/14 10:46:44;;;;;;;3.38;1.90;;;;;;;;;;5143891;27;20501;-72
2023/07/14 10:49:20;;;;;;;4.60;1.73;;;;;;;;;;5146211;27;20050;-71
2023/07/14 10:51:49;;;;;;;3.47;1.58;;;;;;;;;;5144011;27;20043;-71
2023/07/14 10:54:18;;;;;;;3.42;1.55;;;;;;;;;;5146962;27;20047;-71
2023/07/14 10:56:48;;;;;;;3.33;1.70;;;;;;;;;;5145471;27;20042;-70
2023/07/14 10:59:20;;;;;;;3.95;2.30;;;;;;;;;;5154800;27;20050;-71
2023/07/14 11:01:52;;;;;;;3.85;1.95;;;;;;;;;;5149148;27;20396;-71
2023/07/14 11:04:25;;;;;;;4.00;2.03;;;;;;;;;;5142977;27;20047;-71
2023/07/14 11:06:55;;;;;;;5.15;1.75;;;;;;;;;;5124880;27;20038;-73
2023/07/14 11:09:22;;;;;;;4.05;1.60;;;;;;;;;;5146179;27;20057;-72
2023/07/14 11:11:58;;;;;;;6.32;2.30;;;;;;;;;;5145133;27;20462;-72
2023/07/14 11:14:31;;;;;;;4.50;2.08;;;;;;;;;;5144952;27;20049;-72
2023/07/14 11:17:02;;;;;;;4.15;2.10;;;;;;;;;;5146771;27;20039;-72
2023/07/14 11:19:34;;;;;;;4.72;2.10;;;;;;;;;;5148348;27;20050;-71
2023/07/14 11:22:04;;;;;;;4.57;2.10;;;;;;;;;;5138239;27;20058;-72
2023/07/14 11:24:33;;;;;;;3.25;1.85;;;;;;;;;;5142370;27;20042;-72
2023/07/14 11:27:10;;;;;;;6.93;2.47;;;;;;;;;;5144691;27;20050;-71
2023/07/14 11:29:39;;;;;;;6.45;1.98;;;;;;;;;;5144272;27;20399;-71
2023/07/14 11:32:17;;;;;;;7.82;2.50;;;;;;;;;;5142514;27;20517;-71
2023/07/14 11:34:50;;;;;;;4.90;2.45;;;;;;;;;;5145405;27;20489;-71
2023/07/14 11:37:23;;;;;;;5.82;2.33;;;;;;;;;;5148839;27;20047;-71
2023/07/14 11:39:52;;;;;;;4.70;2.30;;;;;;;;;;5147797;27;20493;-71
2023/07/14 11:42:22;;;;;;;6.47;2.35;;;;;;;;;;5143114;27;20055;-71
2023/07/14 11:44:51;;;;;;;6.63;2.30;;;;;;;;;;5143676;27;20493;-71
2023/07/14 11:47:23;;;;;;;5.18;2.20;;;;;;;;;;5145394;27;20042;-71
2023/07/14 11:49:53;;;;;;;5.40;2.37;;;;;;;;;;5145166;27;20043;-71
2023/07/14 11:52:24;;;;;;;5.32;2.35;;;;;;;;;;5148813;27;20095;-71
2023/07/14 11:55:02;;;;;;;4.88;2.10;;;;;;;;;;5146734;27;20070;-71
2023/07/14 11:57:31;;;;;;;3.63;2.10;;;;;;;;;;5147165;27;20481;-72
2023/07/14 12:00:00;;;;;;;4.80;2.55;;;;;;;;;;5144029;27;20049;-71
2023/07/14 12:02:30;;;;;;;5.05;2.78;;;;;;;;;;5146199;27;20047;-71
2023/07/14 12:05:02;;;;;;;6.13;2.78;;;;;;;;;;5142851;27;20050;-71
2023/07/14 12:07:30;;;;;;;10.60;2.78;;;;;;;;;;5144316;27;20077;-71
2023/07/14 12:10:03;;;;;;;5.75;2.72;;;;;;;;;;5127063;27;20521;-66
2023/07/14 12:12:33;;;;;;;5.47;2.88;;;;;;;;;;5146737;27;20042;-67
2023/07/14 12:15:02;;;;;;;6.20;3.47;;;;;;;;;;5148493;27;20050;-67
2023/07/14 12:17:44;;;;;;;6.65;2.88;;;;;;;;;;5132049;27;20119;-67
2023/07/14 12:20:30;;;;;;;7.70;3.22;;;;;;;;;;5141554;27;20451;-67
2023/07/14 12:23:19;;;;;;;5.40;2.88;;;;;;;;;;5146533;27;20418;-67
2023/07/14 12:25:50;;;;;;;6.35;3.38;;;;;;;;;;5142502;27;20088;-66
2023/07/14 12:28:21;;;;;;;9.27;3.47;;;;;;;;;;5148861;27;20581;-67
2023/07/14 12:30:50;;;;;;;5.70;3.40;;;;;;;;;;5122472;27;20138;-67
2023/07/14 12:33:21;;;;;;;7.75;3.70;;;;;;;;;;5142948;27;20074;-67
2023/07/14 12:35:49;;;;;;;9.00;3.40;;;;;;;;;;5141061;27;20038;-67
2023/07/14 12:38:18;;;;;;;8.55;3.70;;;;;;;;;;5137824;27;20043;-66
2023/07/14 12:40:45;;;;;;;4.90;3.30;;;;;;;;;;5147541;27;20061;-66
2023/07/14 12:43:22;;;;;;;5.88;3.63;;;;;;;;;;5117274;27;20116;-67
2023/07/14 12:45:50;;;;;;;8.55;3.53;;;;;;;;;;5142556;27;20099;-67
2023/07/14 12:48:18;;;;;;;7.03;3.20;;;;;;;;;;5148181;27;20047;-66
2023/07/14 12:50:46;;;;;;;8.85;3.60;;;;;;;;;;5140409;27;20051;-66
2023/07/14 12:53:15;;;;;;;7.10;3.97;;;;;;;;;;5135022;27;20088;-67
2023/07/14 12:55:42;;;;;;;7.70;3.38;;;;;;;;;;5146037;27;20078;-67
2023/07/14 12:58:15;;;;;;;9.68;3.20;;;;;;;;;;5130314;27;20049;-67
2023/07/14 13:00:42;;;;;;;9.32;3.42;;;;;;;;;;5144488;27;20070;-67
2023/07/14 13:03:12;;;;;;;6.75;3.60;;;;;;;;;;5138955;27;20639;-67
2023/07/14 13:05:41;;;;;;;7.53;3.40;;;;;;;;;;5142768;27;20081;-67
2023/07/14 13:08:12;;;;;;;7.63;3.63;;;;;;;;;;5146557;27;20512;-67
2023/07/14 13:10:41;;;;;;;6.40;3.28;;;;;;;;;;5144298;27;20134;-66
2023/07/14 13:13:13;;;;;;;6.82;3.58;;;;;;;;;;5141147;27;20058;-66
2023/07/14 13:15:42;;;;;;;10.20;3.72;;;;;;;;;;5140272;27;20055;-67
2023/07/14 13:18:23;;;;;;;6.15;3.42;;;;;;;;;;5139806;27;20043;-67
2023/07/14 13:20:50;;;;;;;5.97;3.30;;;;;;;;;;5147610;27;20058;-66
2023/07/14 13:23:22;;;;;;;6.45;3.47;;;;;;;;;;5128382;27;20077;-67
2023/07/14 13:25:53;;;;;;;8.18;3.40;;;;;;;;;;5148821;27;20039;-66
2023/07/14 13:28:27;;;;;;;8.68;3.10;;;;;;;;;;5146448;27;20038;-66
2023/07/14 13:30:55;;;;;;;9.38;3.90;;;;;;;;;;5142654;27;20508;-66
2023/07/14 13:33:26;;;;;;;8.32;3.92;;;;;;;;;;5142220;27;20043;-67
2023/07/14 13:35:55;;;;;;;10.05;3.75;;;;;;;;;;5143167;27;20078;-67
2023/07/14 13:38:22;;;;;;;7.72;3.75;;;;;;;;;;5139326;27;20043;-67
2023/07/14 13:40:52;;;;;;;6.78;3.30;;;;;;;;;;5148101;27;20043;-67
2023/07/14 13:43:22;;;;;;;6.15;2.85;;;;;;;;;;5146000;27;20050;-67
2023/07/14 13:45:59;;;;;;;7.72;2.90;;;;;;;;;;5142525;27;20125;-67
2023/07/14 13:48:31;;;;;;;7.47;3.58;;;;;;;;;;5142812;27;20049;-67
2023/07/14 13:50:59;;;;;;;6.40;2.85;;;;;;;;;;5139766;27;20091;-67
2023/07/14 13:53:27;;;;;;;5.43;2.50;;;;;;;;;;5129854;27;20115;-67
2023/07/14 13:55:55;;;;;;;6.30;2.67;;;;;;;;;;5142118;27;20047;-67
2023/07/14 13:58:22;;;;;;;6.18;2.80;;;;;;;;;;5135014;27;20401;-67
2023/07/14 14:00:49;;;;;;;6.68;3.28;;;;;;;;;;5134194;27;20050;-67
2023/07/14 14:03:17;;;;;;;6.43;2.83;;;;;;;;;;5142192;27;20401;-67
2023/07/14 14:05:47;;;;;;;6.55;3.20;;;;;;;;;;5142585;27;20051;-67
2023/07/14 14:08:15;;;;;;;7.72;3.15;;;;;;;;;;5142139;27;20540;-68
2023/07/14 14:10:43;;;;;;;7.10;2.88;;;;;;;;;;5142880;27;20096;-67
2023/07/14 14:13:11;;;;;;;7.25;3.30;;;;;;;;;;5146719;27;20130;-67
2023/07/14 14:15:41;;;;;;;7.35;3.03;;;;;;;;;;5144444;27;20057;-71
2023/07/14 14:18:11;;;;;;;6.50;3.33;;;;;;;;;;5144899;27;20198;-71
2023/07/14 14:20:38;;;;;;;5.88;2.97;;;;;;;;;;5146941;27;20077;-72
2023/07/14 14:23:09;;;;;;;7.22;3.00;;;;;;;;;;5143175;27;20039;-71
2023/07/14 14:25:37;;;;;;;7.68;3.53;;;;;;;;;;5146749;27;20055;-71
2023/07/14 14:28:04;;;;;;;5.68;3.17;;;;;;;;;;5146088;27;20077;-71
2023/07/14 14:30:34;;;;;;;7.63;4.25;;;;;;;;;;5149099;27;20121;-71
2023/07/14 14:33:02;;;;;;;10.02;5.18;;;;;;;;;;5129633;27;20067;-71
2023/07/14 14:35:31;;;;;;;8.52;3.97;;;;;;;;;;5147059;27;20077;-71
2023/07/14 14:37:59;;;;;;;7.03;3.67;;;;;;;;;;5144328;27;20039;-72
2023/07/14 14:40:30;;;;;;;7.95;3.90;;;;;;;;;;5144158;27;20042;-71
2023/07/14 14:43:01;;;;;;;7.57;3.33;;;;;;;;;;5149447;27;20517;-71
2023/07/14 14:45:29;;;;;;;6.72;3.47;;;;;;;;;;5130052;27;20074;-71
2023/07/14 14:47:56;;;;;;;8.90;3.45;;;;;;;;;;5146059;27;20058;-71
2023/07/14 14:50:25;;;;;;;7.13;3.55;;;;;;;;;;5145164;27;20039;-71
2023/07/14 14:52:52;;;;;;;7.95;3.58;;;;;;;;;;5140153;27;20081;-71
2023/07/14 14:55:20;;;;;;;7.38;3.95;;;;;;;;;;5149974;27;20049;-71